createdAt,value
2023-03-13T00:00:27.777Z,98672.54
2023-03-13T00:05:59.012Z,98668.10
2023-03-13T00:15:11.842Z,98671.88
2023-03-13T00:20:20.099Z,98677.77
2023-03-13T00:25:27.328Z,98675.97
2023-03-13T00:30:33.353Z,98671.80
2023-03-13T00:35:41.047Z,98661.90
2023-03-13T00:40:48.285Z,98653.86
2023-03-13T00:45:54.090Z,98636.06
2023-03-13T00:51:02.279Z,98634.84
2023-03-13T00:56:12.136Z,98635.80
2023-03-13T01:01:21.142Z,98624.23
2023-03-13T01:06:30.280Z,98615.05
2023-03-13T01:11:39.646Z,98614.88
2023-03-13T01:16:47.588Z,98602.30
2023-03-13T01:21:55.113Z,98586.33
2023-03-13T01:27:03.043Z,98584.76
2023-03-13T01:32:11.131Z,98590.61
2023-03-13T01:37:18.552Z,98585.98
2023-03-13T01:44:51.301Z,98584.06
2023-03-13T01:49:58.918Z,98587.77
2023-03-13T01:55:11.059Z,98589.36
2023-03-13T02:00:24.096Z,98596.57
2023-03-13T02:05:32.732Z,98604.88
2023-03-13T02:10:46.430Z,98618.18
2023-03-13T02:15:54.404Z,98617.70
2023-03-13T02:21:12.038Z,98613.62
2023-03-13T02:26:19.919Z,98617.20
2023-03-13T02:31:29.509Z,98623.77
2023-03-13T02:36:39.545Z,98633.38
2023-03-13T02:41:51.186Z,98646.10
2023-03-13T02:46:59.545Z,98650.02
2023-03-13T02:52:14.515Z,98651.91
2023-03-13T02:57:22.848Z,98658.67
2023-03-13T03:02:30.661Z,98662.90
2023-03-13T03:07:38.769Z,98657.84
2023-03-13T03:12:46.325Z,98657.28
2023-03-13T03:17:54.100Z,98655.88
2023-03-13T03:23:01.820Z,98663.95
2023-03-13T03:28:10.977Z,98663.52
2023-03-13T03:33:27.841Z,98661.84
2023-03-13T03:38:40.548Z,98658.05
2023-03-13T03:43:50.422Z,98657.73
2023-03-13T03:48:57.896Z,98655.07
2023-03-13T03:54:05.607Z,98665.83
2023-03-13T03:59:13.212Z,98665.41
2023-03-13T04:04:20.705Z,98665.46
2023-03-13T04:09:30.446Z,98662.99
2023-03-13T04:14:39.132Z,98668.38
2023-03-13T04:19:46.870Z,98665.88
2023-03-13T04:24:54.726Z,98668.27
2023-03-13T04:30:02.377Z,98671.13
2023-03-13T04:35:11.091Z,98669.52
2023-03-13T04:40:22.464Z,98659.90
2023-03-13T04:45:30.240Z,98652.17
2023-03-13T04:50:37.761Z,98661.16
2023-03-13T04:55:46.437Z,98661.13
2023-03-13T05:00:54.392Z,98663.70
2023-03-13T05:06:02.414Z,98660.86
2023-03-13T05:11:09.925Z,98655.34
2023-03-13T05:16:19.754Z,98654.89
2023-03-13T05:21:27.701Z,98653.02
2023-03-13T05:26:35.434Z,98649.80
2023-03-13T05:31:42.884Z,98640.75
2023-03-13T05:36:50.290Z,98627.88
2023-03-13T05:41:57.911Z,98623.00
2023-03-13T05:47:05.368Z,98615.89
2023-03-13T05:52:13.423Z,98613.41
2023-03-13T05:57:21.810Z,98613.86
2023-03-13T06:02:30.423Z,98612.11
2023-03-13T06:07:38.095Z,98613.18
2023-03-13T06:15:03.926Z,98612.70
2023-03-13T06:20:14.835Z,98611.09
2023-03-13T06:25:22.827Z,98617.02
2023-03-13T06:30:30.962Z,98616.35
2023-03-13T06:35:55.236Z,98610.17
2023-03-13T06:41:03.382Z,98604.07
2023-03-13T06:46:17.060Z,98600.89
2023-03-13T06:51:27.757Z,98593.42
2023-03-13T06:56:35.718Z,98597.44
2023-03-13T07:01:43.620Z,98595.59
2023-03-13T07:06:52.644Z,98589.79
2023-03-13T07:12:03.698Z,98585.98
2023-03-13T07:17:11.491Z,98584.41
2023-03-13T07:22:24.267Z,98588.84
2023-03-13T07:27:32.521Z,98589.75
2023-03-13T07:32:40.305Z,98590.45
2023-03-13T07:37:48.392Z,98580.98
2023-03-13T07:42:56.050Z,98576.87
2023-03-13T07:48:03.942Z,98573.36
2023-03-13T07:53:14.224Z,98565.36
2023-03-13T07:58:23.925Z,98561.36
2023-03-13T08:03:33.930Z,98557.25
2023-03-13T08:08:45.451Z,98554.06
2023-03-13T08:13:53.615Z,98552.79
2023-03-13T08:19:03.760Z,98553.30
2023-03-13T08:24:13.925Z,98546.11
2023-03-13T08:29:27.514Z,98537.14
2023-03-13T08:34:37.964Z,98539.64
2023-03-13T08:39:46.786Z,98531.98
2023-03-13T08:44:56.169Z,98530.20
2023-03-13T08:50:03.929Z,98527.36
2023-03-13T08:55:13.224Z,98519.30
2023-03-13T09:00:24.140Z,98516.29
2023-03-13T09:05:32.341Z,98508.08
2023-03-13T09:10:41.509Z,98494.65
2023-03-13T09:15:55.317Z,98497.61
2023-03-13T09:21:03.575Z,98485.34
2023-03-13T09:26:11.684Z,98484.40
2023-03-13T09:31:21.542Z,98481.86
2023-03-13T09:36:30.797Z,98474.39
2023-03-13T09:41:46.289Z,98476.80
2023-03-13T09:47:05.935Z,98478.45
2023-03-13T09:52:24.463Z,98473.23
2023-03-13T09:57:42.486Z,98465.65
2023-03-13T10:02:59.361Z,98459.04
2023-03-13T10:08:16.697Z,98461.39
2023-03-13T10:13:24.711Z,98450.65
2023-03-13T10:18:34.438Z,98440.20
2023-03-13T10:23:50.750Z,98434.34
2023-03-13T10:29:18.460Z,98433.04
2023-03-13T10:34:29.956Z,98429.28
2023-03-13T10:39:37.967Z,98421.55
2023-03-13T10:44:48.065Z,98413.73
2023-03-13T10:49:59.495Z,98399.79
2023-03-13T10:55:09.463Z,98385.17
2023-03-13T11:00:34.668Z,98385.81
2023-03-13T11:05:44.670Z,98373.52
2023-03-13T11:11:03.598Z,98371.49
2023-03-13T11:16:22.409Z,98362.46
2023-03-13T11:21:44.182Z,98361.95
2023-03-13T11:27:05.138Z,98357.53
2023-03-13T11:32:25.691Z,98347.52
2023-03-13T11:37:40.227Z,98338.17
2023-03-13T11:43:25.404Z,98330.45
2023-03-13T11:49:08.372Z,98320.30
2023-03-13T11:54:39.796Z,98324.61
2023-03-13T11:59:58.503Z,98316.98
2023-03-13T12:05:12.280Z,98303.45
2023-03-13T12:10:27.791Z,98286.59
2023-03-13T12:15:40.420Z,98275.10
2023-03-13T12:20:56.712Z,98276.52
2023-03-13T12:26:08.121Z,98264.71
2023-03-13T12:31:28.119Z,98242.09
2023-03-13T12:36:41.984Z,98233.38
2023-03-13T12:41:57.338Z,98230.21
2023-03-13T12:47:12.201Z,98226.88
2023-03-13T12:52:50.274Z,98218.45
2023-03-13T12:58:28.804Z,98211.20
2023-03-13T13:03:39.468Z,98203.61
2023-03-13T13:09:03.787Z,98204.63
2023-03-13T13:15:00.513Z,98201.71
2023-03-13T13:20:38.010Z,98196.30
2023-03-13T13:25:46.220Z,98191.23
2023-03-13T13:30:57.818Z,98198.64
2023-03-13T13:36:30.301Z,98210.19
2023-03-13T13:41:40.198Z,98208.88
2023-03-13T13:46:49.735Z,98212.22
2023-03-13T13:52:41.773Z,98209.44
2023-03-13T13:57:51.485Z,98212.55
2023-03-13T14:03:00.694Z,98205.35
2023-03-13T14:08:17.916Z,98190.35
2023-03-13T14:13:39.869Z,98189.17
2023-03-13T14:18:47.762Z,98186.45
2023-03-13T14:23:54.981Z,98183.44
2023-03-13T14:29:06.659Z,98178.74
2023-03-13T14:34:16.155Z,98179.23
2023-03-13T14:39:38.508Z,98171.44
2023-03-13T14:44:50.042Z,98172.19
2023-03-13T14:50:02.714Z,98161.73
2023-03-13T14:55:31.409Z,98163.25
2023-03-13T15:00:41.911Z,98157.30
2023-03-13T15:05:51.560Z,98148.66
2023-03-13T15:11:00.296Z,98149.55
2023-03-13T15:16:18.917Z,98155.65
2023-03-13T15:21:30.289Z,98152.06
2023-03-13T15:26:37.859Z,98150.15
2023-03-13T15:31:45.346Z,98148.80
2023-03-13T15:36:52.573Z,98145.74
2023-03-13T15:41:59.863Z,98139.47
2023-03-13T15:47:08.474Z,98136.78
2023-03-13T15:52:20.723Z,98132.54
2023-03-13T15:57:29.551Z,98126.64
2023-03-13T16:02:36.837Z,98117.14
2023-03-13T16:07:44.208Z,98119.52
2023-03-13T16:12:51.889Z,98118.49
2023-03-13T16:17:59.174Z,98125.29
2023-03-13T16:23:06.401Z,98131.00
2023-03-13T16:28:15.692Z,98132.94
2023-03-13T16:33:22.943Z,98131.75
2023-03-13T16:38:30.338Z,98124.52
2023-03-13T16:43:37.835Z,98125.63
2023-03-13T16:48:45.430Z,98125.58
2023-03-13T16:53:54.503Z,98118.61
2023-03-13T16:59:02.405Z,98124.45
2023-03-13T17:04:10.321Z,98113.83
2023-03-13T17:09:18.855Z,98108.55
2023-03-13T17:14:26.483Z,98100.33
2023-03-13T17:19:33.792Z,98100.88
2023-03-13T17:24:41.561Z,98095.29
2023-03-13T17:29:49.274Z,98083.98
2023-03-13T17:34:56.717Z,98078.83
2023-03-13T17:40:04.472Z,98072.46
2023-03-13T17:45:13.749Z,98065.27
2023-03-13T17:50:24.631Z,98048.86
2023-03-13T17:55:32.411Z,98049.73
2023-03-13T18:00:45.148Z,98044.70
2023-03-13T18:05:52.492Z,98036.58
2023-03-13T18:11:00.198Z,98031.48
2023-03-13T18:16:17.486Z,98025.58
2023-03-13T18:21:25.644Z,98020.02
2023-03-13T18:26:35.188Z,98009.67
2023-03-13T18:31:43.996Z,97994.49
2023-03-13T18:36:51.624Z,97979.54
2023-03-13T18:41:59.676Z,97968.92
2023-03-13T18:47:15.452Z,97960.90
2023-03-13T18:52:22.923Z,97950.21
2023-03-13T18:57:31.522Z,97936.20
2023-03-13T19:02:38.613Z,97922.29
2023-03-13T19:07:46.124Z,97921.84
2023-03-13T19:12:53.907Z,97933.79
2023-03-13T19:18:03.905Z,97922.21
2023-03-13T19:23:13.055Z,97909.46
2023-03-13T19:28:21.373Z,97909.21
2023-03-13T19:33:28.787Z,97897.16
2023-03-13T19:38:36.599Z,97892.69
2023-03-13T19:43:45.680Z,97899.67
2023-03-13T19:48:55.194Z,97907.05
2023-03-13T19:54:02.613Z,97908.04
2023-03-13T19:59:16.015Z,97898.70
2023-03-13T20:04:23.335Z,97892.96
2023-03-13T20:09:31.159Z,97890.71
2023-03-13T20:14:38.639Z,97899.46
2023-03-13T20:19:46.702Z,97893.83
2023-03-13T20:24:56.156Z,97886.94
2023-03-13T20:30:04.285Z,97879.73
2023-03-13T20:35:14.307Z,97875.38
2023-03-13T20:40:21.829Z,97876.46
2023-03-13T20:45:30.426Z,97872.02
2023-03-13T20:50:37.861Z,97867.90
2023-03-13T20:55:46.112Z,97857.08
2023-03-13T21:00:53.415Z,97859.45
2023-03-13T21:06:01.124Z,97857.34
2023-03-13T21:11:16.500Z,97846.45
2023-03-13T21:16:24.089Z,97836.13
2023-03-13T21:21:32.651Z,97836.16
2023-03-13T21:26:40.235Z,97824.67
2023-03-13T21:31:47.843Z,97805.91
2023-03-13T21:36:55.483Z,97806.70
2023-03-13T21:42:03.005Z,97801.38
2023-03-13T21:47:10.603Z,97795.95
2023-03-13T21:52:18.100Z,97783.02
2023-03-13T21:57:26.025Z,97778.27
2023-03-13T22:02:33.913Z,97773.77
2023-03-13T22:07:41.339Z,97765.11
2023-03-13T22:12:48.965Z,97759.03
2023-03-13T22:17:56.785Z,97753.27
2023-03-13T22:23:04.772Z,97754.34
2023-03-13T22:28:13.101Z,97756.70
2023-03-13T22:33:20.710Z,97762.37
2023-03-13T22:38:28.332Z,97763.85
2023-03-13T22:43:36.743Z,97767.14
2023-03-13T22:48:44.369Z,97758.59
2023-03-13T22:53:51.768Z,97748.52
2023-03-13T22:58:59.306Z,97741.23
2023-03-13T23:04:06.865Z,97736.80
2023-03-13T23:09:14.663Z,97731.77
2023-03-13T23:14:22.007Z,97716.59
2023-03-13T23:19:30.318Z,97717.91
2023-03-13T23:24:38.232Z,97708.98
2023-03-13T23:29:45.748Z,97702.70
2023-03-13T23:34:53.262Z,97690.06
2023-03-13T23:39:59.630Z,97694.65
2023-03-13T23:45:09.285Z,97683.59
2023-03-13T23:50:17.486Z,97674.78
2023-03-13T23:55:24.808Z,97661.84
